sensor_id;sensor_type;location;lat;lon;timestamp;pressure;altitude;pressure_sealevel;temperature;humidity
49342;BME280;35210;41.606;-87.602;2023-09-19T00:01:09;99555.34;;;21.68;70.40
49342;BME280;35210;41.606;-87.602;2023-09-19T00:03:38;99553.03;;;21.65;69.96
49342;BME280;35210;41.606;-87.602;2023-09-19T00:06:08;99550.91;;;21.60;70.40
49342;BME280;35210;41.606;-87.602;2023-09-19T00:08:36;99554.13;;;21.56;70.58
49342;BME280;35210;41.606;-87.602;2023-09-19T00:11:04;99556.41;;;21.52;71.11
49342;BME280;35210;41.606;-87.602;2023-09-19T00:13:34;99558.81;;;21.47;71.29
49342;BME280;35210;41.606;-87.602;2023-09-19T00:16:10;99563.06;;;21.42;71.31
49342;BME280;35210;41.606;-87.602;2023-09-19T00:18:38;99557.88;;;21.40;71.86
49342;BME280;35210;41.606;-87.602;2023-09-19T00:21:06;99557.22;;;21.38;72.11
49342;BME280;35210;41.606;-87.602;2023-09-19T00:23:36;99551.19;;;21.36;72.34
49342;BME280;35210;41.606;-87.602;2023-09-19T00:26:04;99560.28;;;21.35;72.05
49342;BME280;35210;41.606;-87.602;2023-09-19T00:28:33;99564.34;;;21.31;72.71
49342;BME280;35210;41.606;-87.602;2023-09-19T00:31:01;99569.06;;;21.29;72.80
49342;BME280;35210;41.606;-87.602;2023-09-19T00:33:33;99570.44;;;21.25;73.35
49342;BME280;35210;41.606;-87.602;2023-09-19T00:36:02;99568.78;;;21.24;73.78
49342;BME280;35210;41.606;-87.602;2023-09-19T00:38:31;99567.13;;;21.23;73.84
49342;BME280;35210;41.606;-87.602;2023-09-19T00:40:59;99565.44;;;21.22;74.00
49342;BME280;35210;41.606;-87.602;2023-09-19T00:43:28;99564.09;;;21.18;74.63
49342;BME280;35210;41.606;-87.602;2023-09-19T00:46:00;99567.16;;;21.15;74.40
49342;BME280;35210;41.606;-87.602;2023-09-19T00:48:29;99575.41;;;21.13;74.57
49342;BME280;35210;41.606;-87.602;2023-09-19T00:51:03;99567.59;;;21.04;75.31
49342;BME280;35210;41.606;-87.602;2023-09-19T00:53:32;99579.72;;;20.99;75.62
49342;BME280;35210;41.606;-87.602;2023-09-19T00:56:03;99578.22;;;20.97;76.16
49342;BME280;35210;41.606;-87.602;2023-09-19T00:58:34;99581.44;;;20.92;76.45
49342;BME280;35210;41.606;-87.602;2023-09-19T01:01:05;99583.84;;;20.87;76.78
49342;BME280;35210;41.606;-87.602;2023-09-19T01:03:33;99580.88;;;20.82;77.38
49342;BME280;35210;41.606;-87.602;2023-09-19T01:06:03;99588.25;;;20.80;76.96
49342;BME280;35210;41.606;-87.602;2023-09-19T01:08:31;99584.13;;;20.78;77.27
49342;BME280;35210;41.606;-87.602;2023-09-19T01:11:09;99582.63;;;20.75;77.40
49342;BME280;35210;41.606;-87.602;2023-09-19T01:13:48;99580.31;;;20.72;77.38
49342;BME280;35210;41.606;-87.602;2023-09-19T01:16:28;99592.06;;;20.71;77.51
49342;BME280;35210;41.606;-87.602;2023-09-19T01:19:15;99590.38;;;20.70;77.76
49342;BME280;35210;41.606;-87.602;2023-09-19T01:21:57;99595.09;;;20.68;77.87
49342;BME280;35210;41.606;-87.602;2023-09-19T01:25:02;99592.78;;;20.65;77.83
49342;BME280;35210;41.606;-87.602;2023-09-19T01:27:56;99595.81;;;20.62;77.83
49342;BME280;35210;41.606;-87.602;2023-09-19T01:30:35;99592.47;;;20.60;78.03
49342;BME280;35210;41.606;-87.602;2023-09-19T01:33:09;99593.13;;;20.62;78.03
49342;BME280;35210;41.606;-87.602;2023-09-19T01:35:39;99597.34;;;20.56;78.04
49342;BME280;35210;41.606;-87.602;2023-09-19T01:38:08;99597.72;;;20.53;78.13
49342;BME280;35210;41.606;-87.602;2023-09-19T01:40:42;99593.72;;;20.49;78.33
49342;BME280;35210;41.606;-87.602;2023-09-19T01:43:17;99597.94;;;20.44;78.48
49342;BME280;35210;41.606;-87.602;2023-09-19T01:46:02;99603.31;;;20.44;78.88
49342;BME280;35210;41.606;-87.602;2023-09-19T01:48:38;99595.78;;;20.39;78.44
49342;BME280;35210;41.606;-87.602;2023-09-19T01:51:10;99601.66;;;20.34;78.67
49342;BME280;35210;41.606;-87.602;2023-09-19T01:53:43;99603.66;;;20.32;79.04
49342;BME280;35210;41.606;-87.602;2023-09-19T01:56:19;99611.22;;;20.29;79.15
49342;BME280;35210;41.606;-87.602;2023-09-19T01:58:53;99603.88;;;20.23;79.35
49342;BME280;35210;41.606;-87.602;2023-09-19T02:01:26;99601.38;;;20.21;79.48
49342;BME280;35210;41.606;-87.602;2023-09-19T02:03:56;99600.72;;;20.19;79.60
49342;BME280;35210;41.606;-87.602;2023-09-19T02:06:26;99599.41;;;20.15;80.09
49342;BME280;35210;41.606;-87.602;2023-09-19T02:08:54;99599.75;;;20.12;80.24
49342;BME280;35210;41.606;-87.602;2023-09-19T02:11:23;99605.28;;;20.11;80.32
49342;BME280;35210;41.606;-87.602;2023-09-19T02:13:51;99601.28;;;20.07;80.67
49342;BME280;35210;41.606;-87.602;2023-09-19T02:16:20;99598.81;;;20.05;80.78
49342;BME280;35210;41.606;-87.602;2023-09-19T02:18:50;99603.50;;;20.03;80.71
49342;BME280;35210;41.606;-87.602;2023-09-19T02:21:19;99596.66;;;20.00;81.01
49342;BME280;35210;41.606;-87.602;2023-09-19T02:23:47;99589.78;;;19.98;81.30
49342;BME280;35210;41.606;-87.602;2023-09-19T02:26:16;99599.03;;;19.95;81.36
49342;BME280;35210;41.606;-87.602;2023-09-19T02:28:45;99596.84;;;19.91;81.52
49342;BME280;35210;41.606;-87.602;2023-09-19T02:31:13;99593.50;;;19.89;81.63
49342;BME280;35210;41.606;-87.602;2023-09-19T02:33:42;99589.34;;;19.86;82.17
49342;BME280;35210;41.606;-87.602;2023-09-19T02:36:14;99595.88;;;19.84;82.39
49342;BME280;35210;41.606;-87.602;2023-09-19T02:38:43;99592.72;;;19.80;82.50
49342;BME280;35210;41.606;-87.602;2023-09-19T02:41:11;99589.53;;;19.77;82.82
49342;BME280;35210;41.606;-87.602;2023-09-19T02:43:40;99602.28;;;19.75;83.09
49342;BME280;35210;41.606;-87.602;2023-09-19T02:46:09;99596.25;;;19.73;83.17
49342;BME280;35210;41.606;-87.602;2023-09-19T02:48:37;99605.31;;;19.72;83.48
49342;BME280;35210;41.606;-87.602;2023-09-19T02:51:05;99599.28;;;19.69;83.27
49342;BME280;35210;41.606;-87.602;2023-09-19T02:53:36;99603.31;;;19.65;83.26
49342;BME280;35210;41.606;-87.602;2023-09-19T02:56:04;99606.16;;;19.64;83.44
49342;BME280;35210;41.606;-87.602;2023-09-19T02:58:33;99601.97;;;19.61;83.86
49342;BME280;35210;41.606;-87.602;2023-09-19T03:01:09;99607.34;;;19.61;83.81
49342;BME280;35210;41.606;-87.602;2023-09-19T03:03:37;99618.88;;;19.62;83.79
49342;BME280;35210;41.606;-87.602;2023-09-19T03:06:07;99617.38;;;19.59;84.05
49342;BME280;35210;41.606;-87.602;2023-09-19T03:08:38;99624.25;;;19.54;84.25
49342;BME280;35210;41.606;-87.602;2023-09-19T03:11:09;99626.41;;;19.50;84.42
49342;BME280;35210;41.606;-87.602;2023-09-19T03:13:39;99617.06;;;19.46;84.70
49342;BME280;35210;41.606;-87.602;2023-09-19T03:16:08;99626.09;;;19.45;84.83
49342;BME280;35210;41.606;-87.602;2023-09-19T03:18:36;99622.56;;;19.45;85.03
49342;BME280;35210;41.606;-87.602;2023-09-19T03:21:06;99621.25;;;19.41;85.38
49342;BME280;35210;41.606;-87.602;2023-09-19T03:23:34;99620.22;;;19.42;85.43
49342;BME280;35210;41.606;-87.602;2023-09-19T03:26:04;99619.56;;;19.40;85.56
49342;BME280;35210;41.606;-87.602;2023-09-19T03:28:34;99618.72;;;19.39;85.75
49342;BME280;35210;41.606;-87.602;2023-09-19T03:31:03;99618.72;;;19.39;85.45
49342;BME280;35210;41.606;-87.602;2023-09-19T03:33:32;99620.75;;;19.37;85.32
49342;BME280;35210;41.606;-87.602;2023-09-19T03:36:01;99620.25;;;19.33;85.23
49342;BME280;35210;41.606;-87.602;2023-09-19T03:38:31;99616.44;;;19.28;84.84
49342;BME280;35210;41.606;-87.602;2023-09-19T03:41:00;99624.47;;;19.20;84.47
49342;BME280;35210;41.606;-87.602;2023-09-19T03:43:31;99619.78;;;19.14;85.46
49342;BME280;35210;41.606;-87.602;2023-09-19T03:46:02;99634.84;;;19.07;85.74
49342;BME280;35210;41.606;-87.602;2023-09-19T03:48:31;99632.69;;;19.02;86.24
49342;BME280;35210;41.606;-87.602;2023-09-19T03:51:01;99632.16;;;18.98;86.35
49342;BME280;35210;41.606;-87.602;2023-09-19T03:53:29;99635.19;;;18.95;86.34
49342;BME280;35210;41.606;-87.602;2023-09-19T03:55:57;99625.16;;;18.97;85.86
49342;BME280;35210;41.606;-87.602;2023-09-19T03:58:26;99626.81;;;18.90;85.88
49342;BME280;35210;41.606;-87.602;2023-09-19T04:01:06;99628.66;;;18.82;86.15
49342;BME280;35210;41.606;-87.602;2023-09-19T04:03:34;99621.97;;;18.78;86.34
49342;BME280;35210;41.606;-87.602;2023-09-19T04:06:12;99629.81;;;18.71;87.34
49342;BME280;35210;41.606;-87.602;2023-09-19T04:08:40;99619.44;;;18.68;87.71
49342;BME280;35210;41.606;-87.602;2023-09-19T04:11:09;99626.13;;;18.64;87.74
49342;BME280;35210;41.606;-87.602;2023-09-19T04:13:37;99626.44;;;18.61;87.64
49342;BME280;35210;41.606;-87.602;2023-09-19T04:16:07;99626.75;;;18.58;87.94
49342;BME280;35210;41.606;-87.602;2023-09-19T04:18:35;99615.56;;;18.54;88.14
49342;BME280;35210;41.606;-87.602;2023-09-19T04:21:05;99625.44;;;18.54;88.09
49342;BME280;35210;41.606;-87.602;2023-09-19T04:23:34;99621.25;;;18.51;88.21
49342;BME280;35210;41.606;-87.602;2023-09-19T04:26:02;99630.44;;;18.49;88.31
49342;BME280;35210;41.606;-87.602;2023-09-19T04:28:32;99623.41;;;18.48;88.24
49342;BME280;35210;41.606;-87.602;2023-09-19T04:31:00;99621.72;;;18.47;88.41
49342;BME280;35210;41.606;-87.602;2023-09-19T04:33:30;99621.38;;;18.42;88.59
49342;BME280;35210;41.606;-87.602;2023-09-19T04:35:59;99619.38;;;18.35;88.97
49342;BME280;35210;41.606;-87.602;2023-09-19T04:38:29;99618.84;;;18.32;89.01
49342;BME280;35210;41.606;-87.602;2023-09-19T04:40:58;99623.53;;;18.30;89.53
49342;BME280;35210;41.606;-87.602;2023-09-19T04:43:26;99615.00;;;18.26;89.84
49342;BME280;35210;41.606;-87.602;2023-09-19T04:45:55;99622.00;;;18.27;89.64
49342;BME280;35210;41.606;-87.602;2023-09-19T04:48:23;99628.69;;;18.23;89.72
49342;BME280;35210;41.606;-87.602;2023-09-19T04:50:53;99623.50;;;18.22;89.88
49342;BME280;35210;41.606;-87.602;2023-09-19T04:53:22;99623.00;;;18.18;90.21
49342;BME280;35210;41.606;-87.602;2023-09-19T04:55:51;99625.81;;;18.17;90.36
49342;BME280;35210;41.606;-87.602;2023-09-19T04:58:21;99618.13;;;18.14;90.56
49342;BME280;35210;41.606;-87.602;2023-09-19T05:00:50;99617.13;;;18.15;90.37
49342;BME280;35210;41.606;-87.602;2023-09-19T05:03:18;99627.31;;;18.11;90.88
49342;BME280;35210;41.606;-87.602;2023-09-19T05:05:47;99622.28;;;18.08;91.20
49342;BME280;35210;41.606;-87.602;2023-09-19T05:08:16;99624.28;;;18.06;91.39
49342;BME280;35210;41.606;-87.602;2023-09-19T05:10:44;99628.94;;;18.04;91.20
49342;BME280;35210;41.606;-87.602;2023-09-19T05:13:12;99611.41;;;18.01;91.49
49342;BME280;35210;41.606;-87.602;2023-09-19T05:15:40;99624.91;;;18.00;91.35
49342;BME280;35210;41.606;-87.602;2023-09-19T05:18:09;99620.41;;;18.00;91.16
49342;BME280;35210;41.606;-87.602;2023-09-19T05:20:37;99612.88;;;17.96;91.07
49342;BME280;35210;41.606;-87.602;2023-09-19T05:23:05;99610.38;;;17.94;90.85
49342;BME280;35210;41.606;-87.602;2023-09-19T05:25:40;99607.84;;;17.93;91.10
49342;BME280;35210;41.606;-87.602;2023-09-19T05:28:10;99611.53;;;17.92;90.97
49342;BME280;35210;41.606;-87.602;2023-09-19T05:30:39;99600.16;;;17.90;91.12
49342;BME280;35210;41.606;-87.602;2023-09-19T05:33:07;99608.50;;;17.87;91.06
49342;BME280;35210;41.606;-87.602;2023-09-19T05:35:36;99611.31;;;17.85;90.90
49342;BME280;35210;41.606;-87.602;2023-09-19T05:38:05;99606.16;;;17.84;90.99
49342;BME280;35210;41.606;-87.602;2023-09-19T05:40:35;99613.16;;;17.85;91.02
49342;BME280;35210;41.606;-87.602;2023-09-19T05:43:06;99611.84;;;17.81;91.01
49342;BME280;35210;41.606;-87.602;2023-09-19T05:45:34;99612.84;;;17.80;90.59
49342;BME280;35210;41.606;-87.602;2023-09-19T05:48:08;99606.13;;;17.76;90.90
49342;BME280;35210;41.606;-87.602;2023-09-19T05:50:37;99612.47;;;17.75;91.18
49342;BME280;35210;41.606;-87.602;2023-09-19T05:53:06;99613.78;;;17.70;91.77
49342;BME280;35210;41.606;-87.602;2023-09-19T05:55:34;99613.13;;;17.68;91.55
49342;BME280;35210;41.606;-87.602;2023-09-19T05:58:02;99615.09;;;17.66;91.23
49342;BME280;35210;41.606;-87.602;2023-09-19T06:00:33;99608.38;;;17.62;91.57
49342;BME280;35210;41.606;-87.602;2023-09-19T06:03:02;99608.38;;;17.62;91.16
49342;BME280;35210;41.606;-87.602;2023-09-19T06:05:31;99600.84;;;17.58;91.04
49342;BME280;35210;41.606;-87.602;2023-09-19T06:07:59;99609.69;;;17.58;91.20
49342;BME280;35210;41.606;-87.602;2023-09-19T06:10:34;99611.69;;;17.56;91.73
49342;BME280;35210;41.606;-87.602;2023-09-19T06:13:02;99608.31;;;17.54;92.01
49342;BME280;35210;41.606;-87.602;2023-09-19T06:15:33;99605.81;;;17.53;91.84
49342;BME280;35210;41.606;-87.602;2023-09-19T06:18:03;99610.31;;;17.52;91.51
49342;BME280;35210;41.606;-87.602;2023-09-19T06:20:31;99606.66;;;17.53;91.62
49342;BME280;35210;41.606;-87.602;2023-09-19T06:22:59;99612.16;;;17.52;91.64
49342;BME280;35210;41.606;-87.602;2023-09-19T06:25:28;99610.63;;;17.49;91.49
49342;BME280;35210;41.606;-87.602;2023-09-19T06:27:56;99613.47;;;17.48;91.67
49342;BME280;35210;41.606;-87.602;2023-09-19T06:30:24;99611.78;;;17.47;91.66
49342;BME280;35210;41.606;-87.602;2023-09-19T06:32:58;99621.63;;;17.46;92.13
49342;BME280;35210;41.606;-87.602;2023-09-19T06:35:27;99619.94;;;17.45;92.03
49342;BME280;35210;41.606;-87.602;2023-09-19T06:37:56;99627.13;;;17.45;91.95
49342;BME280;35210;41.606;-87.602;2023-09-19T06:40:25;99627.97;;;17.45;92.24
49342;BME280;35210;41.606;-87.602;2023-09-19T06:42:54;99628.94;;;17.44;92.17
49342;BME280;35210;41.606;-87.602;2023-09-19T06:45:22;99635.28;;;17.43;91.71
49342;BME280;35210;41.606;-87.602;2023-09-19T06:47:53;99637.97;;;17.43;91.65
49342;BME280;35210;41.606;-87.602;2023-09-19T06:50:25;99631.78;;;17.42;91.93
49342;BME280;35210;41.606;-87.602;2023-09-19T06:52:54;99629.13;;;17.42;91.79
49342;BME280;35210;41.606;-87.602;2023-09-19T06:55:26;99637.59;;;17.38;91.46
49342;BME280;35210;41.606;-87.602;2023-09-19T06:57:57;99630.56;;;17.37;91.44
49342;BME280;35210;41.606;-87.602;2023-09-19T07:00:25;99635.22;;;17.35;91.62
49342;BME280;35210;41.606;-87.602;2023-09-19T07:02:58;99637.06;;;17.34;91.94
49342;BME280;35210;41.606;-87.602;2023-09-19T07:05:30;99639.88;;;17.33;91.98
49342;BME280;35210;41.606;-87.602;2023-09-19T07:07:59;99638.38;;;17.30;91.91
49342;BME280;35210;41.606;-87.602;2023-09-19T07:10:28;99637.84;;;17.27;92.03
49342;BME280;35210;41.606;-87.602;2023-09-19T07:12:57;99642.50;;;17.25;92.15
49342;BME280;35210;41.606;-87.602;2023-09-19T07:15:25;99646.16;;;17.24;92.12
49342;BME280;35210;41.606;-87.602;2023-09-19T07:17:54;99647.16;;;17.23;91.93
49342;BME280;35210;41.606;-87.602;2023-09-19T07:20:23;99643.13;;;17.19;92.37
49342;BME280;35210;41.606;-87.602;2023-09-19T07:22:57;99630.91;;;17.16;92.12
49342;BME280;35210;41.606;-87.602;2023-09-19T07:25:27;99632.06;;;17.14;92.82
49342;BME280;35210;41.606;-87.602;2023-09-19T07:27:55;99637.41;;;17.14;92.56
49342;BME280;35210;41.606;-87.602;2023-09-19T07:30:26;99627.88;;;17.11;92.75
49342;BME280;35210;41.606;-87.602;2023-09-19T07:32:54;99630.69;;;17.09;92.55
49342;BME280;35210;41.606;-87.602;2023-09-19T07:35:23;99628.22;;;17.08;92.76
49342;BME280;35210;41.606;-87.602;2023-09-19T07:37:52;99624.03;;;17.05;92.52
49342;BME280;35210;41.606;-87.602;2023-09-19T07:40:22;99617.19;;;17.03;92.93
49342;BME280;35210;41.606;-87.602;2023-09-19T07:42:53;99619.84;;;17.03;92.48
49342;BME280;35210;41.606;-87.602;2023-09-19T07:45:21;99615.66;;;17.00;93.00
49342;BME280;35210;41.606;-87.602;2023-09-19T07:47:51;99615.66;;;17.00;93.06
49342;BME280;35210;41.606;-87.602;2023-09-19T07:50:20;99610.31;;;17.00;93.03
49342;BME280;35210;41.606;-87.602;2023-09-19T07:52:48;99617.94;;;16.95;93.50
49342;BME280;35210;41.606;-87.602;2023-09-19T07:55:19;99617.25;;;16.93;93.30
49342;BME280;35210;41.606;-87.602;2023-09-19T07:57:52;99621.59;;;16.94;93.70
49342;BME280;35210;41.606;-87.602;2023-09-19T08:00:20;99624.44;;;16.93;94.03
49342;BME280;35210;41.606;-87.602;2023-09-19T08:02:48;99613.91;;;16.91;94.27
49342;BME280;35210;41.606;-87.602;2023-09-19T08:05:18;99614.91;;;16.90;93.88
49342;BME280;35210;41.606;-87.602;2023-09-19T08:07:47;99611.25;;;16.91;94.04
49342;BME280;35210;41.606;-87.602;2023-09-19T08:10:15;99616.56;;;16.91;94.31
49342;BME280;35210;41.606;-87.602;2023-09-19T08:12:46;99621.91;;;16.91;94.12
49342;BME280;35210;41.606;-87.602;2023-09-19T08:15:19;99625.56;;;16.90;93.91
49342;BME280;35210;41.606;-87.602;2023-09-19T08:17:48;99635.41;;;16.90;94.31
49342;BME280;35210;41.606;-87.602;2023-09-19T08:20:16;99626.41;;;16.91;93.90
49342;BME280;35210;41.606;-87.602;2023-09-19T08:22:47;99631.75;;;16.91;94.44
49342;BME280;35210;41.606;-87.602;2023-09-19T08:25:15;99630.91;;;16.90;94.78
49342;BME280;35210;41.606;-87.602;2023-09-19T08:27:45;99635.56;;;16.88;94.66
49342;BME280;35210;41.606;-87.602;2023-09-19T08:30:18;99643.09;;;16.93;94.64
49342;BME280;35210;41.606;-87.602;2023-09-19T08:32:50;99640.28;;;16.94;95.00
49342;BME280;35210;41.606;-87.602;2023-09-19T08:35:18;99637.91;;;16.91;94.91
49342;BME280;35210;41.606;-87.602;2023-09-19T08:37:46;99642.41;;;16.91;95.09
49342;BME280;35210;41.606;-87.602;2023-09-19T08:40:15;99646.75;;;16.92;95.39
49342;BME280;35210;41.606;-87.602;2023-09-19T08:42:53;99646.59;;;16.93;95.58
49342;BME280;35210;41.606;-87.602;2023-09-19T08:45:24;99650.78;;;16.96;95.63
49342;BME280;35210;41.606;-87.602;2023-09-19T08:48:00;99648.28;;;16.94;95.56
49342;BME280;35210;41.606;-87.602;2023-09-19T08:50:35;99650.63;;;16.97;95.66
49342;BME280;35210;41.606;-87.602;2023-09-19T08:53:11;99640.97;;;16.96;95.77
49342;BME280;35210;41.606;-87.602;2023-09-19T08:55:44;99645.31;;;16.97;95.24
49342;BME280;35210;41.606;-87.602;2023-09-19T08:58:17;99638.44;;;16.95;95.26
49342;BME280;35210;41.606;-87.602;2023-09-19T09:00:50;99635.94;;;16.93;95.64
49342;BME280;35210;41.606;-87.602;2023-09-19T09:03:22;99630.59;;;16.93;95.64
49342;BME280;35210;41.606;-87.602;2023-09-19T09:05:51;99634.41;;;16.91;95.17
49342;BME280;35210;41.606;-87.602;2023-09-19T09:08:20;99627.25;;;16.91;95.49
49342;BME280;35210;41.606;-87.602;2023-09-19T09:10:49;99631.22;;;16.87;95.00
49342;BME280;35210;41.606;-87.602;2023-09-19T09:13:18;99625.03;;;16.87;95.11
49342;BME280;35210;41.606;-87.602;2023-09-19T09:15:49;99622.53;;;16.85;95.01
49342;BME280;35210;41.606;-87.602;2023-09-19T09:18:18;99613.84;;;16.83;94.92
49342;BME280;35210;41.606;-87.602;2023-09-19T09:20:46;99617.50;;;16.82;94.85
49342;BME280;35210;41.606;-87.602;2023-09-19T09:23:14;99605.16;;;16.81;95.07
49342;BME280;35210;41.606;-87.602;2023-09-19T09:25:50;99609.66;;;16.81;94.71
49342;BME280;35210;41.606;-87.602;2023-09-19T09:28:23;99608.81;;;16.80;94.70
49342;BME280;35210;41.606;-87.602;2023-09-19T09:30:54;99605.31;;;16.80;94.81
49342;BME280;35210;41.606;-87.602;2023-09-19T09:33:24;99598.31;;;16.79;95.18
49342;BME280;35210;41.606;-87.602;2023-09-19T09:35:54;99599.44;;;16.76;94.91
49342;BME280;35210;41.606;-87.602;2023-09-19T09:38:26;99612.78;;;16.76;93.91
49342;BME280;35210;41.606;-87.602;2023-09-19T09:40:58;99608.88;;;16.70;94.13
49342;BME280;35210;41.606;-87.602;2023-09-19T09:43:31;99605.00;;;16.65;94.98
49342;BME280;35210;41.606;-87.602;2023-09-19T09:46:12;99593.50;;;16.64;95.12
49342;BME280;35210;41.606;-87.602;2023-09-19T09:48:57;99594.63;;;16.62;95.15
49342;BME280;35210;41.606;-87.602;2023-09-19T09:51:59;99602.06;;;16.58;95.42
49342;BME280;35210;41.606;-87.602;2023-09-19T09:54:31;99597.19;;;16.54;95.76
49342;BME280;35210;41.606;-87.602;2023-09-19T09:57:05;99602.22;;;16.57;95.61
49342;BME280;35210;41.606;-87.602;2023-09-19T09:59:47;99611.38;;;16.54;95.30
49342;BME280;35210;41.606;-87.602;2023-09-19T10:02:19;99614.03;;;16.54;95.93
49342;BME280;35210;41.606;-87.602;2023-09-19T10:04:52;99610.44;;;16.46;95.88
49342;BME280;35210;41.606;-87.602;2023-09-19T10:07:26;99610.44;;;16.46;96.12
49342;BME280;35210;41.606;-87.602;2023-09-19T10:10:02;99613.81;;;16.48;96.37
49342;BME280;35210;41.606;-87.602;2023-09-19T10:12:48;99607.41;;;16.40;96.42
49342;BME280;35210;41.606;-87.602;2023-09-19T10:15:18;99610.44;;;16.46;96.43
49342;BME280;35210;41.606;-87.602;2023-09-19T10:17:50;99611.88;;;16.40;96.49
49342;BME280;35210;41.606;-87.602;2023-09-19T10:20:23;99608.31;;;16.31;96.87
49342;BME280;35210;41.606;-87.602;2023-09-19T10:23:04;99602.75;;;16.25;97.31
49342;BME280;35210;41.606;-87.602;2023-09-19T10:25:37;99607.25;;;16.24;97.56
49342;BME280;35210;41.606;-87.602;2023-09-19T10:28:06;99609.13;;;16.14;97.82
49342;BME280;35210;41.606;-87.602;2023-09-19T10:30:42;99617.50;;;16.19;97.50
49342;BME280;35210;41.606;-87.602;2023-09-19T10:33:16;99615.09;;;16.26;97.09
49342;BME280;35210;41.606;-87.602;2023-09-19T10:35:47;99613.28;;;16.26;97.00
49342;BME280;35210;41.606;-87.602;2023-09-19T10:38:18;99608.78;;;16.27;97.10
49342;BME280;35210;41.606;-87.602;2023-09-19T10:40:50;99614.56;;;16.22;97.45
49342;BME280;35210;41.606;-87.602;2023-09-19T10:43:21;99621.06;;;16.10;96.91
49342;BME280;35210;41.606;-87.602;2023-09-19T10:45:54;99623.03;;;16.08;98.14
49342;BME280;35210;41.606;-87.602;2023-09-19T10:48:26;99613.47;;;16.15;97.10
49342;BME280;35210;41.606;-87.602;2023-09-19T10:51:01;99617.38;;;16.21;97.99
49342;BME280;35210;41.606;-87.602;2023-09-19T10:53:41;99609.22;;;16.22;97.34
49342;BME280;35210;41.606;-87.602;2023-09-19T10:56:17;99621.56;;;16.23;97.19
49342;BME280;35210;41.606;-87.602;2023-09-19T10:58:48;99631.97;;;16.17;97.45
49342;BME280;35210;41.606;-87.602;2023-09-19T11:01:17;99630.84;;;16.19;97.24
49342;BME280;35210;41.606;-87.602;2023-09-19T11:03:48;99631.91;;;16.26;96.92
49342;BME280;35210;41.606;-87.602;2023-09-19T11:06:19;99626.59;;;16.26;96.70
49342;BME280;35210;41.606;-87.602;2023-09-19T11:08:56;99630.50;;;16.32;96.42
49342;BME280;35210;41.606;-87.602;2023-09-19T11:11:56;99637.78;;;16.30;96.60
49342;BME280;35210;41.606;-87.602;2023-09-19T11:14:42;99633.00;;;16.33;96.55
49342;BME280;35210;41.606;-87.602;2023-09-19T11:17:41;99633.00;;;16.33;96.87
49342;BME280;35210;41.606;-87.602;2023-09-19T11:20:24;99638.34;;;16.33;96.89
49342;BME280;35210;41.606;-87.602;2023-09-19T11:23:19;99631.69;;;16.37;97.22
49342;BME280;35210;41.606;-87.602;2023-09-19T11:25:53;99638.00;;;16.36;97.88
49342;BME280;35210;41.606;-87.602;2023-09-19T11:28:31;99635.09;;;16.12;98.24
49342;BME280;35210;41.606;-87.602;2023-09-19T11:34:39;99636.66;;;16.32;98.61
49342;BME280;35210;41.606;-87.602;2023-09-19T11:40:39;99653.00;;;16.20;99.18
49342;BME280;35210;41.606;-87.602;2023-09-19T11:43:31;99664.50;;;16.20;99.29
49342;BME280;35210;41.606;-87.602;2023-09-19T11:46:06;99671.63;;;16.20;99.71
49342;BME280;35210;41.606;-87.602;2023-09-19T11:48:35;99669.00;;;16.37;98.94
49342;BME280;35210;41.606;-87.602;2023-09-19T11:51:15;99668.63;;;16.50;98.18
49342;BME280;35210;41.606;-87.602;2023-09-19T11:53:50;99673.34;;;16.38;98.42
49342;BME280;35210;41.606;-87.602;2023-09-19T11:56:21;99673.03;;;16.24;99.54
49342;BME280;35210;41.606;-87.602;2023-09-19T11:58:51;99671.09;;;16.16;99.49
49342;BME280;35210;41.606;-87.602;2023-09-19T12:01:26;99665.38;;;16.11;99.91
49342;BME280;35210;41.606;-87.602;2023-09-19T12:03:57;99667.84;;;16.22;100.00
49342;BME280;35210;41.606;-87.602;2023-09-19T12:06:26;99665.28;;;16.30;99.73
49342;BME280;35210;41.606;-87.602;2023-09-19T12:08:56;99673.34;;;16.38;99.78
49342;BME280;35210;41.606;-87.602;2023-09-19T12:11:29;99668.09;;;16.29;99.23
49342;BME280;35210;41.606;-87.602;2023-09-19T12:14:00;99661.22;;;16.26;99.68
49342;BME280;35210;41.606;-87.602;2023-09-19T12:16:28;99669.47;;;16.33;99.71
49342;BME280;35210;41.606;-87.602;2023-09-19T12:18:57;99661.78;;;16.30;98.84
49342;BME280;35210;41.606;-87.602;2023-09-19T12:21:27;99665.63;;;16.18;99.06
49342;BME280;35210;41.606;-87.602;2023-09-19T12:24:11;99667.78;;;16.32;99.29
49342;BME280;35210;41.606;-87.602;2023-09-19T12:26:45;99669.63;;;16.31;98.88
49342;BME280;35210;41.606;-87.602;2023-09-19T12:29:17;99680.34;;;16.39;98.86
49342;BME280;35210;41.606;-87.602;2023-09-19T12:31:53;99675.84;;;16.40;98.67
49342;BME280;35210;41.606;-87.602;2023-09-19T12:34:24;99669.38;;;16.42;99.31
49342;BME280;35210;41.606;-87.602;2023-09-19T12:37:08;99671.34;;;16.40;99.31
49342;BME280;35210;41.606;-87.602;2023-09-19T12:39:43;99662.69;;;16.38;99.53
49342;BME280;35210;41.606;-87.602;2023-09-19T12:42:17;99676.38;;;16.43;99.53
49342;BME280;35210;41.606;-87.602;2023-09-19T12:44:47;99676.69;;;16.40;98.95
49342;BME280;35210;41.606;-87.602;2023-09-19T12:47:18;99680.34;;;16.39;99.15
49342;BME280;35210;41.606;-87.602;2023-09-19T12:50:08;99679.59;;;16.47;99.40
49342;BME280;35210;41.606;-87.602;2023-09-19T12:52:42;99687.59;;;16.47;98.96
49342;BME280;35210;41.606;-87.602;2023-09-19T12:55:21;99693.41;;;16.60;98.77
49342;BME280;35210;41.606;-87.602;2023-09-19T12:58:07;99695.38;;;16.58;99.22
49342;BME280;35210;41.606;-87.602;2023-09-19T13:00:37;99696.56;;;16.46;98.87
49342;BME280;35210;41.606;-87.602;2023-09-19T13:03:15;99700.78;;;16.49;98.94
49342;BME280;35210;41.606;-87.602;2023-09-19T13:05:52;99701.00;;;16.65;98.46
49342;BME280;35210;41.606;-87.602;2023-09-19T13:08:25;99697.13;;;16.77;98.29
49342;BME280;35210;41.606;-87.602;2023-09-19T13:11:03;99698.88;;;16.86;98.45